Latest Coastal Weather Observations for Mardie

IDW60701

Issued at 3:31 pm WST Friday 6 May 2016 (issued every 10 minutes, with the page automatically refreshed every 10 minutes)

About coastal observations | Map of coastal stations | Coastal observations for WA | Marine services | Other Formats
Station Details ID: 005008 Name: MARDIE Lat: -21.19 Lon: 115.98 Height: 11.0 m
Data from the previous 72 hours. | See also: Recent months at Mardie
Date/Time
WST
Temp

°C
Wind Pressure Rain
since 9am
mm
Weather Cloud Vis
km
Sea
Height
m
Swell
Dir
 
Speed
knots
Gust
knots
hPa Trend Height
m
Period
s
Dir
06/03:30pm 24.8 NNW 3 5 1007.0 - 0.2 - - - - - - -
06/03:00pm 25.1 N 3 5 1007.1 - 0.2 - - - - - - -
06/02:30pm 24.6 N 3 5 1007.2 - 0.2 - - - - - - -
06/02:00pm 25.9 NE 1 3 1007.6 - 0.2 - - - - - - -
06/01:30pm 26.0 CALM 0 0 1007.9 - 0.2 - - - - - - -
06/01:00pm 25.8 CALM 0 0 1008.2 - 0.2 - - - - - - -
06/12:30pm 25.6 NE 2 4 1008.7 - 0.2 - - - - - - -
06/12:00pm 25.0 NE 2 4 1009.0 - 0.2 - - - - - - -
06/11:30am 24.5 NE 2 4 1009.4 - 0.2 - - - - - - -
06/11:00am 24.3 NE 4 5 1009.6 - 0.2 - - - - - - -
06/10:30am 23.9 NE 5 6 1010.2 - 0.2 - - - - - - -
06/10:00am 23.5 ENE 2 4 1010.5 - 0.2 - - - - - - -
06/09:30am 23.2 N 2 3 1010.4 - 0.0 - - - - - - -
06/09:00am 23.1 CALM 0 0 1010.3 - 29.2 Recent precip. - - - - - -
06/08:30am 22.9 CALM 0 0 1010.2 - 29.0 - - - - - - -
06/08:00am 22.6 N 3 5 1010.0 - 29.0 - - - - - - -
06/07:30am 22.6 CALM 0 1 1009.6 - 29.0 - - - - - - -
06/07:00am 22.3 CALM 0 0 1009.3 - 28.8 - - - - - - -
06/06:30am 22.1 NNW 4 6 1009.3 - 28.2 - - - - - - -
06/06:00am 22.1 NW 8 11 1009.0 - 25.6 Rain - - - - - -
06/05:30am 21.4 NNW 3 5 1009.0 - 19.6 - - - - - - -
06/05:00am 21.5 WNW 4 6 1009.1 - 12.6 - - - - - - -
06/04:30am 22.2 WNW 6 7 1009.2 - 8.8 - - - - - - -
06/04:00am 22.3 NW 5 8 1009.2 - 5.6 - - - - - - -
06/03:30am 22.7 CALM 0 2 1009.5 - 3.0 - - - - - - -
06/03:00am 22.4 SSW 1 3 1009.5 - 2.6 Recent precip. - - - - - -
06/02:30am 22.5 SSW 2 5 1009.7 - 2.0 - - - - - - -
06/02:00am 22.6 SSE 4 5 1009.9 - 1.4 - - - - - - -
06/01:30am 22.6 S 6 8 1009.8 - 1.4 - - - - - - -
06/01:00am 23.1 SSW 3 4 1010.1 - 1.4 - - - - - - -
06/12:30am 23.3 CALM 0 0 1010.3 - 1.4 - - - - - - -
06/12:00am 23.2 CALM 0 0 1010.5 - 1.4 - - - - - - -
 
Date/Time
WST
Temp

°C
Wind Pressure Rain
since 9am
mm
Weather Cloud Vis
km
Sea
Height
m
Swell
Dir
 
Speed
knots
Gust
knots
hPa Trend Height
m
Period
s
Dir
05/11:30pm 22.9 NNW 1 3 1010.5 - 1.4 - - - - - - -
05/11:00pm 22.8 WNW 5 8 1010.9 - 1.4 - - - - - - -
05/10:30pm 24.1 NNW 9 15 1010.9 - 0.8 - - - - - - -
05/10:00pm 25.3 WNW 4 6 1010.9 - 0.8 - - - - - - -
05/09:30pm 25.5 W 2 3 1010.9 - 0.8 - - - - - - -
05/09:00pm 25.6 CALM 0 0 1011.2 - 0.8 Recent precip. - - - - - -
05/08:30pm 25.7 SSW 3 4 1010.8 - 0.8 - - - - - - -
05/08:00pm 26.0 CALM 0 0 1010.6 - 0.6 - - - - - - -
05/07:30pm 25.9 CALM 0 0 1010.4 - 0.4 - - - - - - -
05/07:00pm 26.1 CALM 0 0 1010.2 - 0.0 - - - - - - -
05/06:30pm 26.2 CALM 0 0 1009.9 - 0.0 - - - - - - -
05/06:00pm 26.3 CALM 0 0 1009.9 - 0.0 - - - - - - -
05/05:30pm 26.6 NW 5 7 1010.0 - 0.0 - - - - - - -
05/05:00pm 27.2 NW 5 7 1009.9 - 0.0 - - - - - - -
05/04:30pm 27.7 NNW 4 5 1009.5 - 0.0 - - - - - - -
05/04:00pm 27.7 NW 5 7 1009.6 - 0.0 - - - - - - -
05/03:30pm 28.1 NW 6 8 1009.7 - 0.0 - - - - - - -
05/03:00pm 28.3 NW 6 8 1009.5 - 0.0 - - - - - - -
05/02:30pm 28.7 NW 6 9 1009.3 - 0.0 - - - - - - -
05/02:00pm 29.0 NW 7 9 1009.3 - 0.0 - - - - - - -
05/01:30pm 29.0 WNW 5 8 1009.4 - 0.0 - - - - - - -
05/01:00pm 29.4 NW 5 10 1009.7 - 0.0 - - - - - - -
05/12:30pm 28.9 NW 4 6 1010.1 - 0.0 - - - - - - -
05/12:00pm 28.9 NNW 3 6 1010.5 - 0.0 - - - - - - -
05/11:30am 28.6 W 1 4 1010.8 - 0.0 - - - - - - -
05/11:00am 28.8 WNW 3 5 1011.6 - 0.0 - - - - - - -
05/10:30am 28.4 W 1 6 1011.8 - 0.0 - - - - - - -
05/10:00am 28.3 NW 5 7 1012.1 - 0.0 - - - - - - -
05/09:30am 28.4 NW 4 8 1012.0 - 0.0 - - - - - - -
05/09:00am 28.0 CALM 0 3 1011.8 - 0.0 - - - - - - -
05/08:30am 26.6 CALM 0 0 1011.2 - 0.0 - - - - - - -
05/08:00am 25.9 NNW 2 3 1011.5 - 0.0 - - - - - - -
05/07:30am 25.6 CALM 0 0 1011.3 - 0.0 - - - - - - -
05/07:00am 25.4 N 2 3 1011.0 - 0.0 - - - - - - -
05/06:30am 25.5 NW 2 4 1010.8 - 0.0 - - - - - - -
05/06:00am 25.7 N 3 5 1010.4 - 0.0 - - - - - - -
05/05:30am 25.6 CALM 0 0 1010.2 - 0.0 - - - - - - -
05/05:00am 25.4 CALM 0 0 1010.1 - 0.0 - - - - - - -
05/04:30am 25.3 CALM 0 2 1010.1 - 0.0 - - - - - - -
05/04:00am 25.7 SSE 2 4 1009.5 - 0.0 - - - - - - -
05/03:30am 25.6 CALM 0 3 1009.5 - 0.0 - - - - - - -
05/03:00am 25.8 CALM 0 0 1009.9 - 0.0 - - - - - - -
05/02:30am 25.9 CALM 0 0 1010.2 - 0.0 - - - - - - -
05/02:00am 25.8 CALM 0 0 1010.3 - 0.0 - - - - - - -
05/01:30am 26.0 CALM 0 0 1010.4 - 0.0 - - - - - - -
05/01:00am 26.0 CALM 0 0 1010.5 - 0.0 - - - - - - -
05/12:30am 26.1 CALM 0 0 1010.7 - 0.0 - - - - - - -
05/12:00am 26.3 CALM 0 0 1010.8 - 0.0 - - - - - - -
 
Date/Time
WST
Temp

°C
Wind Pressure Rain
since 9am
mm
Weather Cloud Vis
km
Sea
Height
m
Swell
Dir
 
Speed
knots
Gust
knots
hPa Trend Height
m
Period
s
Dir
04/11:30pm 26.3 CALM 0 0 1011.0 - 0.0 - - - - - - -
04/11:00pm 26.4 NW 1 3 1011.4 - 0.0 - - - - - - -
04/10:30pm 26.3 NW 3 5 1011.8 - 0.0 - - - - - - -
04/10:00pm 26.7 CALM 0 0 1011.3 - 0.0 - - - - - - -
04/09:30pm 26.8 CALM 0 0 1011.5 - 0.0 - - - - - - -
04/09:00pm 26.9 CALM 0 0 1011.6 - 0.0 - - - - - - -
04/08:30pm 27.0 CALM 0 0 1011.8 - 0.0 - - - - - - -
04/08:00pm 27.1 CALM 0 0 1011.4 - 0.0 - - - - - - -
04/07:30pm 27.1 CALM 0 0 1011.0 - 0.0 - - - - - - -
04/07:00pm 27.0 NNW 3 4 1010.8 - 0.0 - - - - - - -
04/06:30pm 27.4 WNW 5 6 1010.6 - 0.0 - - - - - - -
04/06:00pm 27.5 WNW 3 4 1010.2 - 0.0 - - - - - - -
04/05:30pm 28.2 WNW 6 8 1009.9 - 0.0 - - - - - - -
04/05:00pm 28.7 WNW 7 10 1009.5 - 0.0 - - - - - - -
04/04:30pm 28.9 WNW 7 9 1009.2 - 0.0 - - - - - - -
04/04:00pm 29.4 WNW 7 10 1009.3 - 0.0 - - - - - - -
04/03:30pm 29.4 WNW 7 10 1009.2 - 0.0 - - - - - - -
04/03:00pm 29.6 WNW 8 10 1009.2 - 0.0 - - - - - - -
04/02:30pm 30.8 WNW 8 10 1009.1 - 0.0 - - - - - - -
04/02:00pm 30.7 WNW 9 11 1009.3 - 0.0 - - - - - - -
04/01:30pm 30.7 WNW 8 11 1009.6 - 0.0 - - - - - - -
04/01:00pm 31.0 WNW 8 12 1009.8 - 0.0 - - - - - - -
04/12:30pm 31.3 WNW 5 8 1010.1 - 0.0 - - - - - - -
04/12:00pm 30.6 WNW 7 10 1010.6 - 0.0 - - - - - - -
04/11:30am 31.1 WNW 4 7 1010.8 - 0.0 - - - - - - -
04/11:00am 30.3 NNW 1 2 1011.3 - 0.0 - - - - - - -
04/10:30am 30.2 CALM 0 0 1012.0 - 0.0 - - - - - - -
04/10:00am 28.9 CALM 0 0 1012.5 - 0.0 - - - - - - -
04/09:30am 28.4 NE 1 3 1012.5 - 0.0 - - - - - - -
04/09:00am 27.5 ESE 1 1 1012.4 - 0.0 - - - - - - -
04/08:30am 26.6 CALM 0 0 1012.2 - 0.0 - - - - - - -
04/08:00am 25.0 CALM 0 0 1012.0 - 0.0 - - - - - - -
04/07:30am 23.9 CALM 0 0 1011.9 - 0.0 - - - - - - -
04/07:00am 23.2 SE 2 2 1011.3 - 0.0 - - - - - - -
04/06:30am 23.1 SSE 3 3 1011.0 - 0.0 - - - - - - -
04/06:00am 23.2 SSE 3 4 1010.9 - 0.0 - - - - - - -
04/05:30am 23.0 SSE 2 3 1010.9 - 0.0 - - - - - - -
04/05:00am 23.0 SSE 4 4 1010.9 - 0.0 - - - - - - -
04/04:30am 23.3 SSE 3 4 1010.9 - 0.0 - - - - - - -
04/04:00am 23.3 SSE 4 4 1010.8 - 0.0 - - - - - - -
04/03:30am 23.4 S 2 3 1011.0 - 0.0 - - - - - - -
04/03:00am 23.3 S 2 3 1011.2 - 0.0 - - - - - - -
04/02:30am 23.5 SSE 2 3 1011.4 - 0.0 - - - - - - -
04/02:00am 23.6 S 2 3 1011.4 - 0.0 - - - - - - -
04/01:30am 23.8 S 2 3 1011.7 - 0.0 - - - - - - -
04/01:00am 23.8 SSE 3 3 1011.6 - 0.0 - - - - - - -
04/12:30am 24.0 SSE 3 3 1011.8 - 0.0 - - - - - - -
04/12:00am - S 2 3 1011.7 - 0.0 - - - - - - -
 
Date/Time
WST
Temp

°C
Wind Pressure Rain
since 9am
mm
Weather Cloud Vis
km
Sea
Height
m
Swell
Dir
 
Speed
knots
Gust
knots
hPa Trend Height
m
Period
s
Dir
03/11:30pm 24.9 S 3 3 1011.8 - 0.0 - - - - - - -
03/11:00pm 25.0 SSW 3 4 1011.8 - 0.0 - - - - - - -
03/10:30pm 25.3 WSW 1 2 1011.8 - 0.0 - - - - - - -
03/10:00pm 25.7 WSW 2 3 1011.7 - 0.0 - - - - - - -
03/09:30pm 25.6 CALM 0 0 1012.0 - 0.0 - - - - - - -
03/09:00pm 26.3 CALM 0 0 1012.2 - 0.0 - - - - - - -
03/08:30pm 26.6 CALM 0 2 1012.0 - 0.0 - - - - - - -
03/08:00pm 26.7 CALM 0 0 1011.9 - 0.0 - - - - - - -
03/07:30pm 27.2 NW 2 3 1011.8 - 0.0 - - - - - - -
03/07:00pm 27.3 NW 2 4 1011.4 - 0.0 - - - - - - -
03/06:30pm 27.8 CALM 0 0 1011.3 - 0.0 - - - - - - -
03/06:00pm 28.3 NNW 4 6 1011.1 - 0.0 - - - - - - -
03/05:30pm 28.8 NNW 6 9 1010.4 - 0.0 - - - - - - -
03/05:00pm 29.8 NNW 6 10 1010.2 - 0.0 - - - - - - -
03/04:30pm 30.3 NNW 7 10 1010.1 - 0.0 - - - - - - -
03/04:00pm 30.3 NNW 6 10 1010.0 - 0.0 - - - - - - -

Other Formats:

Comma delimited format used in spreadsheet applications
http://www.bom.gov.au/fwo/IDW60701/IDW60701.94306.axf

JavaScript Object Notation format (JSON) in row-major order
http://www.bom.gov.au/fwo/IDW60701/IDW60701.94306.json